Aviation Digital Data Service (ADDS)

Output produced by METARs form (0837 UTC 24 September 2017)
found at http://aviationweather.gov/adds/metars/
 
KSSI 240520Z 2406/2506 06009KT P6SM SCT020 SCT100 
     FM241400 05012G18KT P6SM BKN040 
     FM250300 04010KT P6SM BKN200